Time;durP1;ratioP1;P1;durP2;ratioP2;P2;SDS_P1;SDS_P2;PMS_P1;PMS_P2;Temp;Humidity;BMP_temperature;BMP_pressure;BME280_temperature;BME280_humidity;BME280_pressure;Samples;Min_cycle;Max_cycle;Signal;HPM_P1;HPM_P2
2022/11/13 00:00:55;;;;;;;36.08;24.67;;;;;;;3.95;100.00;102835.72;5036389;28;20033;-79
2022/11/13 00:03:20;;;;;;;39.92;27.45;;;;;;;3.94;100.00;102834.88;5018795;28;20497;-78
2022/11/13 00:05:46;;;;;;;38.10;25.27;;;;;;;3.96;100.00;102834.81;5036280;28;20102;-77
2022/11/13 00:08:11;;;;;;;35.45;25.10;;;;;;;3.97;100.00;102826.88;5036364;28;20029;-79
2022/11/13 00:10:37;;;;;;;42.83;28.58;;;;;;;3.99;100.00;102832.09;5036351;28;20183;-79
2022/11/13 00:13:02;;;;;;;35.67;23.42;;;;;;;3.97;100.00;102825.97;5036168;28;20279;-79
2022/11/13 00:15:28;;;;;;;36.08;24.70;;;;;;;3.97;100.00;102832.13;5036433;28;20128;-79
2022/11/13 00:17:53;;;;;;;35.08;25.45;;;;;;;3.97;100.00;102821.59;5036804;28;20041;-79
2022/11/13 00:20:19;;;;;;;41.22;26.50;;;;;;;3.94;100.00;102824.34;5035777;28;20036;-79
2022/11/13 00:22:45;;;;;;;38.95;24.98;;;;;;;3.91;100.00;102813.00;5035677;28;20034;-79
2022/11/13 00:25:11;;;;;;;38.85;26.05;;;;;;;3.86;100.00;102808.75;5036136;28;20083;-79
2022/11/13 00:27:36;;;;;;;43.33;29.90;;;;;;;3.83;100.00;102808.84;5036497;28;20037;-80
2022/11/13 00:30:02;;;;;;;40.50;28.90;;;;;;;3.81;100.00;102812.44;5036178;28;20029;-80
2022/11/13 00:32:27;;;;;;;40.67;28.15;;;;;;;3.76;100.00;102812.56;5036223;28;20037;-79
2022/11/13 00:34:53;;;;;;;36.65;25.73;;;;;;;3.73;100.00;102803.91;5035284;28;20450;-79
2022/11/13 00:37:19;;;;;;;38.08;25.55;;;;;;;3.70;100.00;102808.38;5035896;28;20029;-80
2022/11/13 00:39:44;;;;;;;37.60;25.17;;;;;;;3.65;100.00;102802.38;5035731;28;20033;-80
2022/11/13 00:42:09;;;;;;;40.75;27.73;;;;;;;3.61;100.00;102792.81;5036024;28;20095;-80
2022/11/13 00:44:35;;;;;;;34.88;24.05;;;;;;;3.60;100.00;102784.97;5035704;28;20116;-79
2022/11/13 00:47:00;;;;;;;35.95;24.42;;;;;;;3.59;100.00;102788.53;5036618;28;20068;-79
2022/11/13 00:49:26;;;;;;;42.70;28.13;;;;;;;3.57;100.00;102788.59;5035383;28;20120;-79
2022/11/13 00:51:51;;;;;;;41.80;28.25;;;;;;;3.58;100.00;102792.06;5035574;28;20061;-80
2022/11/13 00:54:16;;;;;;;35.53;23.88;;;;;;;3.55;100.00;102789.53;5035750;28;20117;-80
2022/11/13 00:56:42;;;;;;;37.42;24.73;;;;;;;3.54;100.00;102780.78;5035328;28;20512;-79
2022/11/13 00:59:07;;;;;;;33.47;22.98;;;;;;;3.52;100.00;102775.56;5035400;28;20069;-80
2022/11/13 01:01:33;;;;;;;30.65;21.25;;;;;;;3.50;100.00;102768.59;5035351;28;20037;-79
2022/11/13 01:03:58;;;;;;;40.70;27.98;;;;;;;3.49;100.00;102772.13;5035337;28;20523;-79
2022/11/13 01:06:26;;;;;;;25.60;18.50;;;;;;;3.44;100.00;102769.66;5035320;28;20042;-79
2022/11/13 01:08:56;;;;;;;36.42;25.27;;;;;;;3.41;100.00;102769.75;5035202;28;20116;-79
2022/11/13 01:11:24;;;;;;;32.42;22.33;;;;;;;3.38;100.00;102777.72;5035130;28;20037;-79
2022/11/13 01:13:51;;;;;;;34.53;20.42;;;;;;;3.33;100.00;102777.88;5035029;28;20069;-79
2022/11/13 01:16:18;;;;;;;36.65;26.70;;;;;;;3.33;100.00;102771.75;5035496;28;20450;-79
2022/11/13 01:18:44;;;;;;;38.28;26.15;;;;;;;3.32;100.00;102768.25;5034666;28;20044;-79
2022/11/13 01:21:19;;;;;;;33.35;21.92;;;;;;;3.32;100.00;102767.38;5034622;28;20029;-79
2022/11/13 01:23:45;;;;;;;31.05;21.75;;;;;;;3.30;100.00;102767.44;5034333;28;20037;-80
2022/11/13 01:26:19;;;;;;;43.58;27.02;;;;;;;3.30;100.00;102763.91;5034897;28;20052;-79
2022/11/13 01:28:45;;;;;;;40.70;25.63;;;;;;;3.31;100.00;102765.66;5034802;28;20025;-80
2022/11/13 01:31:16;;;;;;;40.15;25.35;;;;;;;3.30;100.00;102756.91;5034519;28;20163;-79
2022/11/13 01:33:43;;;;;;;35.17;22.50;;;;;;;3.33;100.00;102764.72;5035414;28;20033;-78
2022/11/13 01:36:15;;;;;;;33.38;22.10;;;;;;;3.35;100.00;102757.63;5034664;28;20378;-78
2022/11/13 01:38:40;;;;;;;31.05;20.50;;;;;;;3.32;100.00;102756.88;5033399;28;20378;-78
2022/11/13 01:41:20;;;;;;;37.75;24.42;;;;;;;3.29;100.00;102759.59;5034542;28;20040;-78
2022/11/13 01:43:46;;;;;;;37.13;24.30;;;;;;;3.26;100.00;102759.69;5034688;28;20036;-80
2022/11/13 01:46:29;;;;;;;27.10;20.17;;;;;;;3.22;100.00;102756.25;5034847;28;20040;-79
2022/11/13 01:49:03;;;;;;;25.63;18.33;;;;;;;3.18;100.00;102757.28;5034742;28;20072;-79
2022/11/13 01:51:37;;;;;;;33.83;22.70;;;;;;;3.16;100.00;102754.69;5033825;28;20040;-78
2022/11/13 01:54:07;;;;;;;34.60;22.17;;;;;;;3.11;100.00;102761.81;5034717;28;20461;-80
2022/11/13 01:56:32;;;;;;;33.30;22.35;;;;;;;3.08;100.00;102758.44;5034654;28;20076;-79
2022/11/13 01:59:09;;;;;;;39.17;25.08;;;;;;;3.07;100.00;102759.34;5034284;28;20506;-80
2022/11/13 02:01:34;;;;;;;32.67;22.48;;;;;;;3.07;100.00;102754.91;5034104;28;20111;-79
2022/11/13 02:04:00;;;;;;;35.47;24.15;;;;;;;3.07;100.00;102756.69;5034148;28;20041;-78
2022/11/13 02:06:29;;;;;;;34.03;21.92;;;;;;;3.04;100.00;102752.38;5034584;28;20105;-78
2022/11/13 02:08:55;;;;;;;38.42;24.67;;;;;;;3.03;100.00;102737.53;5033965;28;20124;-79
2022/11/13 02:11:20;;;;;;;34.60;25.30;;;;;;;3.04;100.00;102738.38;5034125;28;20458;-79
2022/11/13 02:13:46;;;;;;;35.72;21.75;;;;;;;3.04;100.00;102733.97;5033925;28;20037;-80
2022/11/13 02:16:12;;;;;;;32.05;20.75;;;;;;;3.00;100.00;102732.31;5032569;28;20394;-80
2022/11/13 02:18:39;;;;;;;30.48;21.05;;;;;;;2.97;100.00;102735.03;5032638;28;20038;-80
2022/11/13 02:21:12;;;;;;;28.08;20.38;;;;;;;2.96;100.00;102746.50;5033812;28;20036;-80
2022/11/13 02:23:58;;;;;;;27.35;18.58;;;;;;;2.92;100.00;102735.19;5034159;28;20025;-79
2022/11/13 02:26:26;;;;;;;28.23;19.00;;;;;;;2.93;100.00;102725.53;5034163;28;20033;-78
2022/11/13 02:28:51;;;;;;;29.25;20.38;;;;;;;2.94;100.00;102733.38;5033681;28;20025;-79
2022/11/13 02:31:17;;;;;;;28.15;18.35;;;;;;;2.93;100.00;102725.53;5034037;28;20148;-79
2022/11/13 02:33:42;;;;;;;29.90;17.73;;;;;;;2.93;100.00;102730.81;5033836;28;20025;-79
2022/11/13 02:36:09;;;;;;;23.73;15.77;;;;;;;2.92;100.00;102731.69;5033283;28;20029;-78
2022/11/13 02:38:36;;;;;;;22.25;15.48;;;;;;;2.88;100.00;102723.03;5033301;28;20033;-78
2022/11/13 02:41:01;;;;;;;22.80;15.95;;;;;;;2.89;100.00;102716.00;5033746;28;20025;-79
2022/11/13 02:43:27;;;;;;;31.65;20.05;;;;;;;2.89;100.00;102710.75;5033191;28;20025;-80
2022/11/13 02:45:52;;;;;;;34.65;20.02;;;;;;;2.90;100.00;102715.13;5033106;28;20038;-81
2022/11/13 02:48:18;;;;;;;30.67;20.10;;;;;;;2.90;100.00;102710.72;5033454;28;20090;-79
2022/11/13 02:50:43;;;;;;;29.00;18.55;;;;;;;2.94;100.00;102711.47;5033539;28;20445;-79
2022/11/13 02:53:09;;;;;;;25.83;17.70;;;;;;;2.97;100.00;102704.38;5033427;28;20030;-79
2022/11/13 02:55:35;;;;;;;22.83;15.82;;;;;;;3.01;100.00;102699.88;5033694;28;20378;-79
2022/11/13 02:58:00;;;;;;;23.95;15.77;;;;;;;3.06;100.00;102700.63;5033931;28;20032;-79
2022/11/13 03:00:26;;;;;;;23.13;15.30;;;;;;;3.11;100.00;102687.31;5032035;28;20033;-79
2022/11/13 03:02:51;;;;;;;24.38;14.30;;;;;;;3.13;100.00;102688.13;5033323;28;20046;-79
2022/11/13 03:05:17;;;;;;;21.08;14.48;;;;;;;3.16;100.00;102682.78;5033836;28;20530;-79
2022/11/13 03:07:42;;;;;;;22.63;13.90;;;;;;;3.21;100.00;102674.75;5034084;28;20036;-78
2022/11/13 03:10:09;;;;;;;25.67;15.57;;;;;;;3.23;100.00;102671.16;5033246;28;20038;-80
2022/11/13 03:12:34;;;;;;;27.90;18.27;;;;;;;3.31;100.00;102670.94;5033486;28;20041;-80
2022/11/13 03:15:00;;;;;;;24.17;15.90;;;;;;;3.32;100.00;102667.41;5033280;28;20030;-79
2022/11/13 03:17:25;;;;;;;23.27;15.35;;;;;;;3.30;100.00;102669.19;5033184;28;20033;-80
2022/11/13 03:19:51;;;;;;;21.55;14.60;;;;;;;3.30;100.00;102672.72;5033501;28;20493;-79
2022/11/13 03:22:16;;;;;;;25.35;16.20;;;;;;;3.29;100.00;102676.25;5032701;28;20033;-79
2022/11/13 03:24:41;;;;;;;21.38;14.55;;;;;;;3.29;100.00;102676.25;5033636;28;20032;-81
2022/11/13 03:27:07;;;;;;;22.73;14.48;;;;;;;3.27;100.00;102677.19;5031794;28;20053;-78
2022/11/13 03:29:32;;;;;;;16.90;12.77;;;;;;;3.28;100.00;102671.03;5033052;28;20385;-80
2022/11/13 03:31:57;;;;;;;23.58;16.67;;;;;;;3.28;100.00;102660.50;5032930;28;20493;-80
2022/11/13 03:34:24;;;;;;;21.90;15.15;;;;;;;3.28;100.00;102665.75;5033566;28;20045;-79
2022/11/13 03:36:49;;;;;;;18.33;12.63;;;;;;;3.23;100.00;102657.16;5032939;28;20029;-78
2022/11/13 03:39:15;;;;;;;24.00;15.38;;;;;;;3.21;100.00;102662.47;5032962;28;20033;-77
2022/11/13 03:41:40;;;;;;;21.27;14.25;;;;;;;3.17;100.00;102664.31;5033262;28;20116;-78
2022/11/13 03:44:05;;;;;;;19.00;13.48;;;;;;;3.14;100.00;102667.03;5033052;28;20113;-79
2022/11/13 03:46:31;;;;;;;19.95;13.80;;;;;;;3.10;100.00;102673.28;5032655;28;20121;-78
2022/11/13 03:48:56;;;;;;;18.05;12.63;;;;;;;3.07;100.00;102670.75;5031236;28;20474;-79
2022/11/13 03:51:21;;;;;;;19.02;11.52;;;;;;;3.05;100.00;102666.47;5033465;28;20061;-79
2022/11/13 03:53:47;;;;;;;17.10;11.93;;;;;;;3.03;100.00;102665.63;5033028;28;20468;-78
2022/11/13 03:56:12;;;;;;;18.80;12.23;;;;;;;3.00;100.00;102677.09;5033030;28;20041;-79
2022/11/13 03:58:37;;;;;;;21.23;13.55;;;;;;;2.97;100.00;102662.28;5033107;28;20423;-78
2022/11/13 04:01:03;;;;;;;19.50;12.93;;;;;;;2.94;100.00;102658.88;5032841;28;20041;-79
2022/11/13 04:03:28;;;;;;;19.70;12.10;;;;;;;2.92;100.00;102660.69;5032569;28;20100;-79
2022/11/13 04:05:53;;;;;;;16.77;11.60;;;;;;;2.88;100.00;102665.19;5032559;28;20113;-77
2022/11/13 04:08:19;;;;;;;18.00;12.57;;;;;;;2.86;100.00;102658.25;5032483;28;20120;-79
2022/11/13 04:10:44;;;;;;;19.80;12.93;;;;;;;2.84;100.00;102658.28;5033147;28;20116;-78
2022/11/13 04:13:11;;;;;;;20.48;12.88;;;;;;;2.80;100.00;102660.13;5032491;28;20044;-80
2022/11/13 04:15:36;;;;;;;16.77;11.98;;;;;;;2.77;100.00;102652.34;5035985;28;20075;-80
2022/11/13 04:18:02;;;;;;;18.20;12.38;;;;;;;2.75;100.00;102662.03;5036254;28;20033;-77
2022/11/13 04:20:28;;;;;;;19.75;13.25;;;;;;;2.72;100.00;102662.13;5036081;28;20041;-79
2022/11/13 04:22:55;;;;;;;20.98;13.85;;;;;;;2.74;100.00;102660.31;5035985;28;20040;-78
2022/11/13 04:25:20;;;;;;;20.58;13.13;;;;;;;2.74;100.00;102660.31;5035673;28;20498;-79
2022/11/13 04:27:51;;;;;;;17.90;12.65;;;;;;;2.72;100.00;102656.03;5035659;28;20116;-79
2022/11/13 04:30:17;;;;;;;19.77;12.00;;;;;;;2.71;100.00;102652.53;5036057;28;20052;-79
2022/11/13 04:32:43;;;;;;;18.55;13.30;;;;;;;2.72;100.00;102650.78;5035928;28;20155;-79
2022/11/13 04:35:09;;;;;;;16.55;11.77;;;;;;;2.74;100.00;102648.94;5036038;28;20483;-78
2022/11/13 04:37:34;;;;;;;15.45;10.38;;;;;;;2.72;100.00;102638.47;5035815;28;20029;-78
2022/11/13 04:40:00;;;;;;;16.58;11.82;;;;;;;2.70;100.00;102642.03;5036063;28;20103;-78
2022/11/13 04:45:09;;;;;;;16.33;11.63;;;;;;;2.67;100.00;102635.09;5036195;28;20187;-79
2022/11/13 04:47:35;;;;;;;19.30;12.23;;;;;;;2.65;100.00;102636.94;5035581;28;20116;-78
2022/11/13 04:50:00;;;;;;;15.98;11.57;;;;;;;2.61;100.00;102632.66;5035573;28;20527;-78
2022/11/13 04:52:27;;;;;;;19.10;12.25;;;;;;;2.58;100.00;102630.13;5035524;28;20585;-78
2022/11/13 04:54:53;;;;;;;17.05;10.65;;;;;;;2.54;100.00;102633.72;5035378;28;20045;-78
2022/11/13 04:57:19;;;;;;;19.67;11.90;;;;;;;2.51;100.00;102632.06;5034801;28;20132;-78
2022/11/13 04:59:45;;;;;;;23.65;15.00;;;;;;;2.50;100.00;102632.97;5035468;28;20401;-79
2022/11/13 05:02:10;;;;;;;20.80;13.68;;;;;;;2.49;100.00;102635.63;5035578;28;20060;-79
2022/11/13 05:04:36;;;;;;;17.00;11.90;;;;;;;2.47;100.00;102643.56;5035283;28;20041;-78
2022/11/13 05:07:01;;;;;;;23.38;13.38;;;;;;;2.41;100.00;102635.84;5035213;28;20462;-78
2022/11/13 05:09:27;;;;;;;17.58;11.95;;;;;;;2.38;100.00;102622.81;5034046;28;20056;-78
2022/11/13 05:11:52;;;;;;;17.88;11.80;;;;;;;2.35;100.00;102623.75;5035406;28;20477;-78
2022/11/13 05:14:17;;;;;;;19.25;12.57;;;;;;;2.33;100.00;102630.81;5035006;28;20112;-78
2022/11/13 05:16:43;;;;;;;21.23;13.23;;;;;;;2.31;100.00;102616.00;5033837;28;20040;-77
2022/11/13 05:19:09;;;;;;;18.90;12.07;;;;;;;2.28;100.00;102615.19;5033354;28;20030;-77
2022/11/13 05:21:36;;;;;;;15.95;11.30;;;;;;;2.25;100.00;102612.59;5034730;28;20386;-78
2022/11/13 05:24:01;;;;;;;19.60;12.52;;;;;;;2.27;100.00;102608.19;5034841;28;20469;-78
2022/11/13 05:26:27;;;;;;;17.35;11.55;;;;;;;2.25;100.00;102611.75;5033750;28;20036;-77
2022/11/13 05:28:56;;;;;;;17.90;12.52;;;;;;;2.22;100.00;102611.84;5034773;28;20038;-77
2022/11/13 05:31:22;;;;;;;15.07;10.35;;;;;;;2.19;100.00;102612.78;5035153;28;20061;-78
2022/11/13 05:33:48;;;;;;;15.60;10.80;;;;;;;2.17;100.00;102616.38;5035202;28;20068;-77
2022/11/13 05:36:15;;;;;;;15.70;10.50;;;;;;;2.12;100.00;102613.88;5034867;28;20033;-77
2022/11/13 05:38:41;;;;;;;17.45;11.60;;;;;;;2.08;100.00;102607.81;5035167;28;20033;-77
2022/11/13 05:41:17;;;;;;;15.70;11.50;;;;;;;2.04;100.00;102607.94;5034655;28;20030;-77
2022/11/13 05:43:43;;;;;;;17.70;10.50;;;;;;;1.99;100.00;102600.19;5034459;28;20485;-77
2022/11/13 05:46:20;;;;;;;20.42;13.95;;;;;;;1.95;100.00;102593.28;5034422;28;20033;-77
2022/11/13 05:48:47;;;;;;;15.32;10.80;;;;;;;1.91;100.00;102596.88;5034485;28;20025;-77
2022/11/13 05:51:18;;;;;;;17.42;11.27;;;;;;;1.89;100.00;102596.94;5034345;28;20038;-77
2022/11/13 05:53:44;;;;;;;17.88;11.02;;;;;;;1.89;100.00;102586.44;5035065;28;20378;-78
2022/11/13 05:56:15;;;;;;;18.05;12.68;;;;;;;1.91;100.00;102587.28;5034793;28;20040;-78
2022/11/13 05:58:41;;;;;;;27.20;15.07;;;;;;;1.91;100.00;102575.88;5034377;28;20056;-78
2022/11/13 06:01:12;;;;;;;18.15;11.90;;;;;;;1.91;100.00;102578.50;5034323;28;20477;-78
2022/11/13 06:03:38;;;;;;;17.20;11.48;;;;;;;1.90;100.00;102580.28;5034400;28;20048;-77
2022/11/13 06:06:06;;;;;;;18.65;11.95;;;;;;;1.90;100.00;102579.44;5034473;28;20041;-77
2022/11/13 06:08:32;;;;;;;21.73;13.98;;;;;;;1.89;100.00;102580.31;5033937;28;20039;-77
2022/11/13 06:11:00;;;;;;;17.38;11.85;;;;;;;1.86;100.00;102575.16;5033900;28;20042;-77
2022/11/13 06:13:26;;;;;;;18.02;11.98;;;;;;;1.84;100.00;102577.81;5033752;28;20056;-77
2022/11/13 06:15:52;;;;;;;18.45;11.43;;;;;;;1.80;100.00;102568.31;5033894;28;20025;-77
2022/11/13 06:18:22;;;;;;;14.95;10.60;;;;;;;1.76;100.00;102567.53;5033957;28;20055;-78
2022/11/13 06:20:47;;;;;;;18.38;11.60;;;;;;;1.74;100.00;102558.81;5033524;28;20033;-78
2022/11/13 06:23:13;;;;;;;15.73;11.27;;;;;;;1.73;100.00;102556.22;5034134;28;20692;-77
2022/11/13 06:25:38;;;;;;;15.93;11.05;;;;;;;1.73;100.00;102566.72;5033451;28;20033;-77
2022/11/13 06:28:03;;;;;;;19.52;12.30;;;;;;;1.73;100.00;102564.09;5033643;28;20037;-77
2022/11/13 06:30:29;;;;;;;16.48;11.15;;;;;;;1.72;100.00;102571.13;5033211;28;20496;-77
2022/11/13 06:32:54;;;;;;;15.18;10.95;;;;;;;1.71;100.00;102565.91;5033542;28;20382;-77
2022/11/13 06:35:20;;;;;;;24.77;14.23;;;;;;;1.73;100.00;102556.22;5032017;28;20473;-77
2022/11/13 06:37:45;;;;;;;18.60;12.77;;;;;;;1.73;100.00;102551.88;5033051;28;20490;-77
2022/11/13 06:40:11;;;;;;;18.27;11.90;;;;;;;1.72;100.00;102558.00;5033686;28;20400;-77
2022/11/13 06:42:37;;;;;;;26.05;14.80;;;;;;;1.75;100.00;102557.94;5033676;28;20030;-77
2022/11/13 06:45:03;;;;;;;23.00;14.32;;;;;;;1.83;100.00;102560.34;5033614;28;20052;-77
2022/11/13 06:47:28;;;;;;;24.80;13.93;;;;;;;1.88;100.00;102558.47;5032889;28;20041;-78
2022/11/13 06:49:53;;;;;;;24.77;14.88;;;;;;;1.93;100.00;102564.44;5033236;28;20045;-77
2022/11/13 06:52:19;;;;;;;21.65;14.90;;;;;;;1.97;100.00;102556.50;5033512;28;20041;-77
2022/11/13 06:54:44;;;;;;;22.50;14.32;;;;;;;2.03;100.00;102562.47;5033528;28;20098;-78
2022/11/13 06:57:09;;;;;;;29.75;15.30;;;;;;;2.09;100.00;102558.78;5033157;28;20033;-77
2022/11/13 06:59:35;;;;;;;20.83;12.75;;;;;;;2.09;100.00;102558.78;5033018;28;20041;-77
2022/11/13 07:02:01;;;;;;;21.48;14.00;;;;;;;2.06;100.00;102553.63;5032993;28;20125;-78
2022/11/13 07:04:26;;;;;;;24.08;15.93;;;;;;;2.06;100.00;102544.00;5033741;28;20099;-80
2022/11/13 07:06:51;;;;;;;22.00;14.27;;;;;;;2.08;100.00;102546.56;5032885;28;20098;-78
2022/11/13 07:09:17;;;;;;;29.23;15.48;;;;;;;2.10;100.00;102550.84;5033071;28;20486;-79
2022/11/13 07:11:42;;;;;;;25.77;15.15;;;;;;;2.12;100.00;102548.22;5033117;28;20040;-79
2022/11/13 07:14:11;;;;;;;20.42;12.90;;;;;;;2.15;100.00;102542.00;5031814;28;20471;-79
2022/11/13 07:16:36;;;;;;;22.00;14.48;;;;;;;2.17;100.00;102543.69;5032933;28;20061;-79
2022/11/13 07:19:01;;;;;;;27.75;15.90;;;;;;;2.20;100.00;102538.34;5032776;28;20474;-79
2022/11/13 07:21:27;;;;;;;22.83;14.95;;;;;;;2.24;100.00;102533.84;5033128;28;20112;-79
2022/11/13 07:23:52;;;;;;;26.08;15.63;;;;;;;2.27;100.00;102537.28;5032960;28;20119;-79
2022/11/13 07:26:18;;;;;;;26.77;16.70;;;;;;;2.32;100.00;102536.28;5032975;28;20037;-79
2022/11/13 07:28:44;;;;;;;26.35;16.45;;;;;;;2.38;100.00;102528.22;5032523;28;20044;-79
2022/11/13 07:31:11;;;;;;;25.60;16.42;;;;;;;2.46;100.00;102532.34;5032630;28;20033;-79
2022/11/13 07:33:36;;;;;;;24.38;16.17;;;;;;;2.59;100.00;102529.34;5032732;28;20055;-78
2022/11/13 07:36:02;;;;;;;29.58;17.42;;;;;;;2.70;100.00;102532.50;5032793;28;20458;-78
2022/11/13 07:38:27;;;;;;;27.85;17.20;;;;;;;2.82;100.00;102532.16;5032818;28;20033;-78
2022/11/13 07:40:53;;;;;;;28.38;16.85;;;;;;;2.95;100.00;102535.22;5032789;28;20033;-79
2022/11/13 07:43:18;;;;;;;25.48;16.85;;;;;;;3.09;100.00;102526.94;5033106;28;20073;-79
2022/11/13 07:45:44;;;;;;;26.90;16.80;;;;;;;3.25;100.00;102529.91;5032729;28;20036;-79
2022/11/13 07:48:10;;;;;;;26.17;15.95;;;;;;;3.41;100.00;102529.41;5032685;28;20033;-81
2022/11/13 07:50:36;;;;;;;23.83;16.10;;;;;;;3.57;100.00;102538.50;5036419;28;20080;-78
2022/11/13 07:53:05;;;;;;;27.40;16.65;;;;;;;3.73;100.00;102527.44;5036761;28;20496;-78
2022/11/13 07:55:33;;;;;;;24.13;15.82;;;;;;;3.86;100.00;102526.94;5036296;28;20131;-82
2022/11/13 07:57:59;;;;;;;24.52;16.30;;;;;;;4.02;100.00;102534.31;5036573;28;20041;-80
2022/11/13 08:00:29;;;;;;;24.65;16.20;;;;;;;4.15;100.00;102537.34;5036433;28;20037;-79
2022/11/13 08:02:54;;;;;;;22.35;16.13;;;;;;;4.26;100.00;102537.00;5036327;28;20053;-80
2022/11/13 08:05:20;;;;;;;30.70;16.98;;;;;;;4.33;100.00;102530.56;5036672;28;20129;-81
2022/11/13 08:07:50;;;;;;;30.08;16.95;;;;;;;4.40;100.00;102525.03;5036361;28;20036;-81
2022/11/13 08:10:17;;;;;;;24.13;15.90;;;;;;;4.49;100.00;102529.06;5036312;28;20418;-80
2022/11/13 08:12:43;;;;;;;24.98;15.15;;;;;;;4.57;100.00;102529.63;5036806;28;20030;-80
2022/11/13 08:15:09;;;;;;;24.05;14.43;;;;;;;4.65;100.00;102529.34;5036170;28;20080;-80
2022/11/13 08:17:34;;;;;;;21.10;14.23;;;;;;;4.72;100.00;102530.81;5036080;28;20449;-80
2022/11/13 08:19:59;;;;;;;18.73;13.48;;;;;;;4.77;100.00;102528.84;5036413;28;20041;-80
2022/11/13 08:22:25;;;;;;;18.65;13.65;;;;;;;4.86;100.00;102532.91;5036334;28;20120;-80
2022/11/13 08:24:52;;;;;;;18.10;13.02;;;;;;;4.97;100.00;102536.91;5035881;28;20048;-80
2022/11/13 08:27:19;;;;;;;25.45;14.18;;;;;;;5.07;100.00;102528.56;5035895;28;20030;-81
2022/11/13 08:29:45;;;;;;;21.13;13.68;;;;;;;5.16;100.00;102529.13;5034757;28;20351;-79
2022/11/13 08:32:14;;;;;;;21.25;13.43;;;;;;;5.25;100.00;102526.94;5035916;28;20064;-79
2022/11/13 08:34:39;;;;;;;19.05;13.13;;;;;;;5.39;100.00;102530.78;5035804;28;20030;-78
2022/11/13 08:37:04;;;;;;;24.40;13.63;;;;;;;5.49;100.00;102526.84;5035560;28;20051;-78
2022/11/13 08:39:30;;;;;;;25.15;13.40;;;;;;;5.59;100.00;102517.63;5035759;28;20120;-78
2022/11/13 08:41:55;;;;;;;17.95;12.70;;;;;;;5.69;100.00;102519.84;5036231;28;20061;-78
2022/11/13 08:44:20;;;;;;;20.27;12.70;;;;;;;5.76;100.00;102518.66;5035400;28;20030;-76
2022/11/13 08:46:46;;;;;;;17.60;11.93;;;;;;;5.86;100.00;102516.50;5035653;28;20038;-76
2022/11/13 08:49:11;;;;;;;19.02;12.43;;;;;;;5.92;100.00;102510.94;5035615;28;20029;-76
2022/11/13 08:51:36;;;;;;;16.92;11.13;;;;;;;5.98;100.00;102515.97;5035325;28;20034;-79
2022/11/13 08:54:02;;;;;;;15.35;11.82;;;;;;;6.04;100.00;102505.13;5035392;28;20063;-80
2022/11/13 08:56:27;;;;;;;15.70;10.80;;;;;;;6.05;100.00;102504.22;5035780;28;20060;-79
2022/11/13 08:58:53;;;;;;;14.30;9.95;;;;;;;6.08;100.00;102501.44;5034770;28;20187;-78
2022/11/13 09:01:22;;;;;;;13.27;9.18;;;;;;;6.11;100.00;102503.94;5035177;28;20029;-78
2022/11/13 09:03:48;;;;;;;14.18;9.50;;;;;;;6.16;100.00;102504.56;5034693;28;20102;-78
2022/11/13 09:06:14;;;;;;;12.32;8.82;;;;;;;6.22;100.00;102497.31;5035305;28;20046;-78
2022/11/13 09:08:39;;;;;;;12.20;8.93;;;;;;;6.31;100.00;102495.09;5034752;28;20037;-77
2022/11/13 09:11:05;;;;;;;11.90;8.93;;;;;;;6.39;100.00;102497.41;5034796;28;20033;-78
2022/11/13 09:13:32;;;;;;;11.27;9.05;;;;;;;6.49;100.00;102488.13;5034860;28;20056;-77
2022/11/13 09:15:59;;;;;;;11.18;8.73;;;;;;;6.59;100.00;102485.88;5034679;28;20170;-76
2022/11/13 09:18:24;;;;;;;10.85;8.80;;;;;;;6.63;100.00;102490.09;5034602;28;20033;-76
2022/11/13 09:20:49;;;;;;;11.85;8.25;;;;;;;6.74;100.00;102476.34;5034885;28;20469;-76
2022/11/13 09:23:15;;;;;;;11.77;8.48;;;;;;;6.85;100.00;102475.81;5034539;28;20235;-78
2022/11/13 09:25:40;;;;;;;10.52;8.05;;;;;;;6.98;100.00;102478.72;5034725;28;20029;-77
2022/11/13 09:28:08;;;;;;;14.27;8.52;;;;;;;7.08;100.00;102474.69;5034271;28;20439;-78
2022/11/13 09:30:37;;;;;;;12.25;8.20;;;;;;;7.18;100.00;102469.78;5034401;28;20259;-76
2022/11/13 09:33:02;;;;;;;12.18;8.77;;;;;;;7.25;100.00;102452.66;5033162;28;20037;-78
2022/11/13 09:35:33;;;;;;;12.20;8.18;;;;;;;7.35;100.00;102455.72;5034021;28;20033;-78
2022/11/13 09:38:06;;;;;;;10.85;8.10;;;;;;;7.44;100.00;102460.53;5034449;28;20389;-79
2022/11/13 09:41:09;;;;;;;11.73;8.07;;;;;;;7.52;100.00;102462.78;5034203;28;20033;-78
2022/11/13 09:43:49;;;;;;;14.95;7.72;;;;;;;7.58;100.00;102460.69;5033338;28;20049;-77
2022/11/13 09:46:26;;;;;;;9.57;7.38;;;;;;;7.70;100.00;102458.31;5033102;28;20075;-78
2022/11/13 09:48:59;;;;;;;11.65;8.38;;;;;;;7.77;100.00;102454.41;5034903;28;20034;-79
2022/11/13 09:51:29;;;;;;;13.90;8.02;;;;;;;7.87;100.00;102455.63;5035025;28;20033;-78
2022/11/13 09:53:55;;;;;;;11.15;8.00;;;;;;;7.98;100.00;102454.19;5034218;28;20043;-78
2022/11/13 09:56:34;;;;;;;10.50;7.68;;;;;;;8.06;100.00;102450.19;5034324;28;20041;-77
2022/11/13 09:59:03;;;;;;;11.82;7.50;;;;;;;8.17;100.00;102454.06;5034441;28;20029;-78
2022/11/13 10:01:40;;;;;;;10.88;7.82;;;;;;;8.25;100.00;102444.72;5033648;28;20029;-78
2022/11/13 10:04:10;;;;;;;11.77;7.78;;;;;;;8.30;100.00;102441.84;5034932;28;20046;-78
2022/11/13 10:06:52;;;;;;;12.45;7.72;;;;;;;8.41;100.00;102449.19;5034032;28;20032;-77
2022/11/13 10:09:44;;;;;;;13.30;7.60;;;;;;;8.49;100.00;102443.50;5034409;28;20061;-77
2022/11/13 10:12:12;;;;;;;11.60;7.30;;;;;;;8.64;100.00;102445.25;5033434;28;20036;-77
2022/11/13 10:14:45;;;;;;;9.90;7.65;;;;;;;8.77;100.00;102446.28;5033822;28;20039;-76
2022/11/13 10:17:17;;;;;;;12.32;7.70;;;;;;;8.92;100.00;102449.00;5034319;28;20029;-77
2022/11/13 10:20:10;;;;;;;11.65;7.60;;;;;;;9.08;100.00;102449.81;5033238;28;20378;-77
2022/11/13 10:22:40;;;;;;;10.10;6.90;;;;;;;9.28;100.00;102443.31;5033026;28;20517;-77
2022/11/13 10:25:16;;;;;;;11.70;7.25;;;;;;;9.51;100.00;102439.28;5033946;28;20025;-77
2022/11/13 10:27:47;;;;;;;9.57;7.13;;;;;;;9.64;100.00;102433.22;5034526;28;20120;-77
2022/11/13 10:30:17;;;;;;;10.60;7.35;;;;;;;9.67;100.00;102427.72;5034040;28;20056;-77
2022/11/13 10:32:43;;;;;;;8.55;6.60;;;;;;;9.66;100.00;102424.22;5034556;28;20088;-78
2022/11/13 10:35:15;;;;;;;8.88;7.03;;;;;;;9.71;100.00;102414.13;5033534;28;20355;-76
2022/11/13 10:38:02;;;;;;;10.40;7.47;;;;;;;9.89;100.00;102419.25;5033686;28;20040;-77
2022/11/13 10:40:33;;;;;;;9.02;6.63;;;;;;;10.19;100.00;102418.28;5033351;28;20036;-77
2022/11/13 10:43:12;;;;;;;10.02;6.55;;;;;;;10.47;100.00;102411.22;5033553;28;20135;-76
2022/11/13 10:45:38;;;;;;;8.80;6.95;;;;;;;10.62;100.00;102398.72;5033768;28;20033;-78
2022/11/13 10:48:04;;;;;;;9.10;6.65;;;;;;;10.78;100.00;102404.72;5033254;28;20039;-78
2022/11/13 10:50:31;;;;;;;8.35;6.60;;;;;;;10.81;100.00;102404.53;5048792;28;20037;-77
2022/11/13 10:52:57;;;;;;;9.45;6.63;;;;;;;10.85;100.00;102399.84;5033958;28;20038;-78
2022/11/13 10:55:39;;;;;;;10.35;6.75;;;;;;;10.86;100.00;102396.22;5033633;28;20037;-80
2022/11/13 10:58:12;;;;;;;;;;;;;;;10.89;100.00;102386.22;5034211;28;20041;-79
2022/11/13 11:00:40;;;;;;;9.90;7.10;;;;;;;10.89;100.00;102386.22;5033270;28;19913;-80
2022/11/13 11:03:17;;;;;;;8.50;6.60;;;;;;;10.90;100.00;102387.94;5033212;28;20049;-79
2022/11/13 11:06:03;;;;;;;9.63;7.38;;;;;;;10.80;100.00;102380.66;5033192;28;20034;-77
2022/11/13 11:08:34;;;;;;;8.90;7.03;;;;;;;10.68;100.00;102371.69;5033323;28;20124;-78
2022/11/13 11:13:47;;;;;;;10.48;6.53;;;;;;;10.62;100.00;102359.63;5033733;28;20043;-77
2022/11/13 11:16:21;;;;;;;9.02;6.93;;;;;;;10.71;100.00;102350.19;5032924;28;20046;-77
2022/11/13 11:18:56;;;;;;;13.13;7.60;;;;;;;10.80;100.00;102348.72;5033209;28;20029;-77